• Join FlightAware (Why Join?)
  • Login
  • US Flag 
07:37PM EST


 

Airport Tracker/Info


-or-


 

Live Flight TrackerFlight Track Log ✈ SWA1423 ✈ 13-Apr-2013 ✈ KLGA - KMDW

Flight Track Log - Related Links

Times and Time Zones

All times are in EDT time to prevent confusion due to time zone crossing. See the SWA1423 flight status page for this flight to view local times or setup timezone preferences in your user account.

Time Position Orientation Groundspeed Altitude Reporting Facility
EDT Latitude Longitude Course Direction KTS MPH feet Rate Location/Type
05:48PM 40.7500 -73.8833 72° East 161 185 1,400  Level New York TRACON
05:48PM 40.7667 -73.8167 72° East 245 282 3,500 3,000 Climbing New York TRACON
05:50PM 40.8167 -73.8000 14° North 272 313 7,400 3,780 Climbing New York TRACON
05:51PM 40.8333 -73.8833 285° West 239 275 11,500 2,340 Climbing New York TRACON
05:52PM 40.8500 -74.0000 281° West 302 348 12,100 1,680 Climbing New York TRACON
05:53PM 40.8667 -74.1167 281° West 326 375 14,900 1,740 Climbing New York TRACON
05:54PM 40.8667 -74.2333 270° West 335 386 15,600 840 Climbing New York TRACON
05:55PM 40.8667 -74.3500 270° West 333 383 16,600 540 Climbing New York TRACON
05:56PM 40.8819 -74.4981 278° West 343 395 17,000 120 Climbing New York Center
05:57PM 40.8881 -74.6303 274° West 343 395 17,000  Level New York Center
05:58PM 40.8950 -74.7378 275° West 333 383 17,000  Level New York Center
05:59PM 40.9031 -74.8700 275° West 333 383 17,100 1,200 Climbing New York Center
06:00PM 40.9075 -74.9772 273° West 328 377 19,500 2,460 Climbing New York Center
06:01PM 40.8950 -75.0944 262° West 328 377 22,100 2,400 Climbing New York Center
06:02PM 40.8739 -75.2111 257° West 333 383 24,400 2,280 Climbing New York Center
06:03PM 40.8483 -75.3386 255° West 345 397 26,600 1,920 Climbing New York Center
06:04PM 40.8225 -75.4631 255° West 352 405 28,300 1,980 Climbing New York Center
06:05PM 40.7961 -75.6008 256° West 357 411 30,700 2,280 Climbing New York Center
06:06PM 40.7725 -75.7197 255° West 352 405 32,900 1,860 Climbing New York Center
06:07PM 40.7444 -75.8383 253° West 347 399 34,500 1,140 Climbing New York Center
06:08PM 40.7225 -75.9600 257° West 347 399 35,300 720 Climbing New York Center
06:09PM 40.6939 -76.0892 254° West 355 409 36,000 960 Climbing New York Center
06:10PM 40.6672 -76.2183 255° West 361 415 37,300 960 Climbing New York Center
06:11PM 40.6794 -76.3564 277° West 366 421 38,000 300 Climbing New York Center
06:12PM 40.7022 -76.4922 283° West 376 433 38,000  Level New York Center
06:13PM 40.7225 -76.6308 281° West 376 433 38,000  Level New York Center
06:14PM 40.7406 -76.7694 280° West 381 438 38,000  Level New York Center
06:15PM 40.7628 -76.9083 282° West 386 444 38,000  Level New York Center
06:16PM 40.7828 -77.0417 281° West 386 444 38,000  Level New York Center
06:17PM 40.8025 -77.1781 281° West 380 437 38,000  Level New York Center
06:19PM 40.8364 -77.4214 281° West 378 435 38,000  Level Cleveland Center
06:20PM 40.8547 -77.5578 280° West 373 429 38,000  Level Cleveland Center
06:21PM 40.8728 -77.6917 280° West 373 429 38,000  Level Cleveland Center
06:22PM 40.8906 -77.8144 281° West 378 435 38,000  Level Cleveland Center
06:23PM 40.9081 -77.9483 280° West 378 435 38,000  Level Cleveland Center
06:24PM 40.9258 -78.0794 280° West 373 429 38,000  Level Cleveland Center
06:25PM 40.9411 -78.2164 278° West 373 429 38,000  Level Cleveland Center
06:26PM 40.9628 -78.3531 282° West 373 429 38,000  Level Cleveland Center
06:27PM 40.9778 -78.4900 278° West 373 429 38,000  Level Cleveland Center
06:28PM 40.9928 -78.6272 278° West 373 429 38,000  Level Cleveland Center
06:29PM 41.0117 -78.7642 280° West 373 429 38,000  Level Cleveland Center
06:30PM 41.0264 -78.9014 278° West 378 435 38,000  Level Cleveland Center
06:31PM 41.0450 -79.0414 280° West 383 441 38,000  Level Cleveland Center
06:32PM 41.0592 -79.1842 278° West 389 448 38,000  Level Cleveland Center
06:33PM 41.0756 -79.3244 279° West 389 448 38,000  Level Cleveland Center
06:34PM 41.0894 -79.4647 278° West 389 448 38,000  Level Cleveland Center
06:35PM 41.1075 -79.6022 280° West 389 448 38,000  Level Cleveland Center
06:36PM 41.1211 -79.7425 277° West 389 448 38,000  Level Cleveland Center
06:37PM 41.1367 -79.8994 278° West 389 448 38,000  Level Cleveland Center
06:38PM 41.1497 -80.0261 278° West 389 448 38,000  Level Cleveland Center
06:39PM 41.1672 -80.1639 280° West 389 448 38,000  Level Cleveland Center
06:40PM 41.1822 -80.3183 277° West 389 448 38,000  Level Cleveland Center
06:41PM 41.2053 -80.4589 282° West 389 448 38,000  Level Cleveland Center
06:42PM 41.2575 -80.5858 299° West 389 448 38,000  Level Cleveland Center
06:43PM 41.3117 -80.7158 299° West 395 455 38,000  Level Cleveland Center
06:44PM 41.3383 -80.8542 284° West 388 447 38,000  Level Cleveland Center
06:45PM 41.3442 -80.9953 273° West 388 447 38,000  Level Cleveland Center
06:46PM 41.3519 -81.1364 274° West 383 441 38,000  Level Cleveland Center
06:47PM 41.3597 -81.2747 274° West 383 441 38,000  Level Cleveland Center
06:48PM 41.3692 -81.4103 275° West 383 441 38,000  Level Cleveland Center
06:49PM 41.3764 -81.5517 274° West 378 435 38,000  Level Cleveland Center
06:50PM 41.3814 -81.6900 273° West 378 435 38,000  Level Cleveland Center
06:51PM 41.3903 -81.8314 275° West 388 447 38,000  Level Cleveland Center
06:52PM 41.3928 -81.9753 271° West 388 447 38,000  Level Cleveland Center
06:53PM 41.3994 -82.1139 274° West 382 440 38,000  Level Cleveland Center
06:54PM 41.4058 -82.2553 273° West 382 440 38,000  Level Cleveland Center
06:55PM 41.4097 -82.3967 272° West 387 445 38,000  Level Cleveland Center
06:56PM 41.4158 -82.5436 273° West 387 445 38,000  Level Cleveland Center
06:57PM 41.4219 -82.6683 274° West 387 445 38,000  Level Cleveland Center
06:58PM 41.4253 -82.8125 272° West 387 445 38,000  Level Cleveland Center
06:59PM 41.4308 -82.9567 273° West 387 445 38,000  Level Cleveland Center
07:00PM 41.4361 -83.1008 273° West 387 445 38,000  Level Cleveland Center
07:01PM 41.4392 -83.2367 272° West 382 440 38,000  Level Cleveland Center
07:02PM 41.4439 -83.3892 272° West 382 440 38,000  Level Cleveland Center
07:03PM 41.4467 -83.5308 272° West 382 440 38,000  Level Cleveland Center
07:04PM 41.4533 -83.6697 274° West 382 440 38,000  Level Cleveland Center
07:05PM 41.4578 -83.8111 272° West 382 440 38,000  Level Cleveland Center
07:07PM 41.4694 -84.0972 273° West 376 433 38,000 -120 Level Chicago Center
07:08PM 41.4719 -84.2375 271° West 379 436 37,800 -1,440 Descending Chicago Center
07:09PM 41.4747 -84.3753 272° West 374 430 35,100 -3,060 Descending Chicago Center
07:10PM 41.4786 -84.5428 272° West 377 434 31,600 -2,520 Descending Chicago Center
07:11PM 41.4825 -84.6806 272° West 375 432 30,000 -840 Descending Chicago Center
07:12PM 41.4875 -84.8206 273° West 377 434 30,000  Level Chicago Center
07:13PM 41.4925 -84.9603 273° West 378 435 30,000 -540 Level Chicago Center
07:14PM 41.4972 -85.1019 273° West 381 438 29,000 -1,440 Descending Chicago Center
07:15PM 41.5014 -85.2450 272° West 383 441 27,100 -1,920 Descending Chicago Center
07:16PM 41.5058 -85.3861 272° West 380 437 25,100 -1,560 Descending Chicago Center
07:17PM 41.5106 -85.5219 273° West 357 411 24,000 -660 Descending Chicago Center
07:18PM 41.5139 -85.6561 272° West 357 411 23,800 -840 Descending Chicago Center
07:19PM 41.5178 -85.7878 272° West 353 406 22,400 -1,860 Descending Chicago Center
07:20PM 41.5214 -85.9100 272° West 329 379 20,100 -2,220 Descending Chicago Center
07:21PM 41.5242 -86.0297 272° West 322 371 17,900 -2,220 Descending Chicago Center
07:22PM 41.5247 -86.1431 270° West 308 354 15,700 -2,100 Descending Chicago Center
07:23PM 41.5244 -86.2508 270° West 293 337 13,600 -2,220 Descending Chicago Center
07:24PM 41.5222 -86.3789 269° West 289 333 11,200 -1,800 Descending Chicago Center
07:25PM 41.5219 -86.4886 270° West 293 337 10,000 -600 Descending Chicago Center
07:26PM 41.5214 -86.5947 270° West 286 329 10,000  Level Chicago Center
07:27PM 41.5203 -86.7031 269° West 291 335 10,000 -60 Level Chicago Center
07:28PM 41.5206 -86.8128 270° West 272 313 9,900 -600 Descending Chicago Center
07:29PM 41.5186 -86.8981 268° West 236 272 8,900 -1,020 Descending Chicago Center
07:30PM 41.5286 -86.9797 279° West 231 266 7,900 -1,020 Descending Chicago Center
07:31PM 41.5472 -87.0600 287° West 225 259 6,900 -1,020 Descending Chicago Center
07:32PM 41.5681 -87.1478 288° West 244 281 5,900 -1,080 Descending Chicago Center
07:33PM 41.5833 -87.2000 291° West 248 285 5,300 -960 Descending Chicago TRACON
07:34PM 41.6000 -87.2833 285° West 245 282 4,500 -660 Descending Chicago TRACON
07:35PM 41.6167 -87.3833 283° West 246 283 4,000 -360 Descending Chicago TRACON
07:35PM 41.6281 -87.4239 291° West 243 280 4,000  Level Chicago Center
07:37PM 41.6472 -87.5081 287° West 241 277 4,000 -60 Level Chicago Center
07:38PM 41.6650 -87.5858 287° West 234 269 3,900 -540 Descending Chicago Center
07:39PM 41.7025 -87.6364 315° West 213 245 2,900 -1,080 Descending Chicago Center
07:39PM 41.7167 -87.6500 324° Northwest 187 215 2,500 -1,080 Descending Chicago TRACON
07:40PM 41.7500 -87.7000 312° West 152 175 1,600 -840 Descending Chicago TRACON
07:41PM 41.7667 -87.7333 304° West 126 145 900 -720 Descending Chicago TRACON